createdAt,value
2018-09-09T00:01:00.387Z,17.40
2018-09-09T00:03:27.719Z,17.40
2018-09-09T00:05:55.171Z,17.40
2018-09-09T00:08:22.512Z,17.50
2018-09-09T00:10:49.859Z,17.50
2018-09-09T00:13:17.225Z,17.50
2018-09-09T00:15:44.563Z,17.50
2018-09-09T00:18:11.894Z,17.50
2018-09-09T00:20:39.283Z,17.40
2018-09-09T00:23:06.640Z,17.50
2018-09-09T00:25:34.387Z,17.50
2018-09-09T00:28:01.952Z,17.20
2018-09-09T00:30:29.299Z,17.50
2018-09-09T00:32:56.652Z,17.50
2018-09-09T00:35:23.991Z,17.50
2018-09-09T00:37:51.327Z,17.50
2018-09-09T00:40:18.666Z,17.50
2018-09-09T00:42:46.037Z,17.50
2018-09-09T00:45:13.398Z,17.50
2018-09-09T00:47:40.727Z,17.50
2018-09-09T00:50:13.739Z,17.50
2018-09-09T00:53:44.484Z,17.50
2018-09-09T00:56:11.907Z,17.50
2018-09-09T00:58:39.283Z,17.50
2018-09-09T01:01:12.360Z,17.50
2018-09-09T01:03:39.752Z,17.50
2018-09-09T01:06:07.305Z,17.50
2018-09-09T01:08:34.654Z,17.50
2018-09-09T01:11:01.992Z,17.50
2018-09-09T01:13:29.396Z,17.50
2018-09-09T01:15:56.792Z,17.50
2018-09-09T01:18:24.116Z,17.50
2018-09-09T01:20:51.451Z,17.50
2018-09-09T01:23:18.807Z,17.50
2018-09-09T01:25:46.162Z,17.50
2018-09-09T01:28:13.503Z,17.50
2018-09-09T01:30:40.886Z,17.50
2018-09-09T01:33:08.300Z,17.50
2018-09-09T01:35:35.651Z,17.50
2018-09-09T01:38:02.988Z,17.40
2018-09-09T01:40:30.363Z,17.50
2018-09-09T01:42:57.727Z,17.50
2018-09-09T01:45:25.087Z,17.40
2018-09-09T01:47:52.438Z,17.50
2018-09-09T01:50:19.757Z,17.50
2018-09-09T01:52:47.122Z,17.50
2018-09-09T01:55:14.451Z,17.50
2018-09-09T01:57:41.988Z,17.50
2018-09-09T02:00:09.328Z,17.50
2018-09-09T02:02:36.751Z,17.50
2018-09-09T02:05:04.107Z,17.40
2018-09-09T02:07:31.453Z,17.50
2018-09-09T02:09:58.797Z,17.50
2018-09-09T02:12:26.158Z,17.50
2018-09-09T02:14:53.501Z,17.40
2018-09-09T02:17:20.853Z,17.40
2018-09-09T02:19:48.177Z,17.50
2018-09-09T02:22:15.555Z,17.40
2018-09-09T02:24:42.891Z,17.50
2018-09-09T02:27:10.232Z,17.50
2018-09-09T02:29:37.563Z,17.50
2018-09-09T02:32:04.915Z,17.50
2018-09-09T02:34:32.338Z,17.50
2018-09-09T02:36:59.748Z,17.50
2018-09-09T02:39:27.090Z,17.50
2018-09-09T02:41:54.430Z,17.50
2018-09-09T02:44:21.785Z,17.50
2018-09-09T02:46:49.140Z,17.50
2018-09-09T02:49:16.499Z,17.50
2018-09-09T02:51:43.928Z,17.50
2018-09-09T02:54:11.291Z,17.50
2018-09-09T02:56:38.647Z,17.50
2018-09-09T02:59:06.000Z,17.50
2018-09-09T03:01:33.355Z,17.50
2018-09-09T03:04:00.702Z,17.50
2018-09-09T03:06:28.075Z,17.50
2018-09-09T03:08:55.433Z,17.50
2018-09-09T03:11:22.784Z,17.50
2018-09-09T03:13:50.143Z,17.40
2018-09-09T03:16:17.511Z,17.40
2018-09-09T03:18:44.965Z,17.50
2018-09-09T03:21:12.319Z,17.50
2018-09-09T03:23:39.723Z,17.50
2018-09-09T03:26:07.063Z,17.50
2018-09-09T03:28:34.469Z,17.50
2018-09-09T03:31:01.828Z,17.50
2018-09-09T03:33:29.164Z,17.50
2018-09-09T03:35:56.512Z,17.50
2018-09-09T03:38:23.863Z,17.50
2018-09-09T03:40:51.260Z,17.50
2018-09-09T03:43:18.734Z,17.40
2018-09-09T03:45:46.150Z,17.40
2018-09-09T03:48:13.507Z,17.40
2018-09-09T03:50:40.863Z,17.40
2018-09-09T03:53:08.233Z,17.40
2018-09-09T03:55:35.571Z,17.50
2018-09-09T03:58:02.944Z,17.40
2018-09-09T04:00:30.297Z,17.40
2018-09-09T04:02:57.635Z,17.40
2018-09-09T04:05:25.007Z,17.40
2018-09-09T04:07:52.415Z,17.40
2018-09-09T04:10:19.810Z,17.40
2018-09-09T04:12:47.183Z,17.40
2018-09-09T04:15:14.515Z,17.40
2018-09-09T04:17:41.979Z,17.40
2018-09-09T04:20:09.335Z,17.40
2018-09-09T04:22:36.683Z,17.40
2018-09-09T04:25:04.074Z,17.40
2018-09-09T04:27:31.460Z,17.40
2018-09-09T04:29:58.796Z,17.40
2018-09-09T04:32:26.167Z,17.40
2018-09-09T04:34:53.522Z,17.40
2018-09-09T04:37:20.879Z,17.40
2018-09-09T04:39:48.270Z,17.40
2018-09-09T04:42:15.628Z,17.40
2018-09-09T04:44:42.983Z,17.40
2018-09-09T04:47:10.339Z,17.40
2018-09-09T04:49:37.686Z,17.30
2018-09-09T04:52:05.034Z,17.30
2018-09-09T04:54:32.367Z,17.30
2018-09-09T04:56:59.700Z,17.30
2018-09-09T04:59:27.099Z,17.30
2018-09-09T05:01:54.455Z,17.30
2018-09-09T05:04:21.815Z,17.30
2018-09-09T05:06:49.201Z,17.30
2018-09-09T05:09:16.542Z,17.30
2018-09-09T05:11:43.891Z,17.40
2018-09-09T05:14:11.249Z,17.30
2018-09-09T05:16:38.718Z,17.30
2018-09-09T05:19:06.119Z,17.20
2018-09-09T05:21:33.488Z,17.30
2018-09-09T05:24:00.933Z,17.30
2018-09-09T05:26:28.308Z,17.30
2018-09-09T05:28:55.651Z,17.40
2018-09-09T05:31:23.031Z,17.40
2018-09-09T05:33:50.456Z,17.40
2018-09-09T05:36:17.808Z,17.40
2018-09-09T05:38:45.159Z,17.40
2018-09-09T05:41:12.559Z,17.40
2018-09-09T05:43:39.919Z,17.40
2018-09-09T05:46:07.313Z,17.40
2018-09-09T05:48:34.671Z,17.50
2018-09-09T05:51:02.015Z,17.50
2018-09-09T05:53:29.370Z,17.50
2018-09-09T05:55:56.720Z,17.50
2018-09-09T05:58:24.119Z,17.50
2018-09-09T06:00:51.628Z,17.50
2018-09-09T06:03:19.001Z,17.50
2018-09-09T06:05:46.341Z,17.50
2018-09-09T06:08:13.680Z,17.50
2018-09-09T06:10:41.071Z,17.50
2018-09-09T06:13:08.407Z,17.50
2018-09-09T06:15:35.744Z,17.50
2018-09-09T06:18:03.095Z,17.50
2018-09-09T06:20:30.449Z,17.50
2018-09-09T06:22:57.803Z,17.50
2018-09-09T06:25:25.166Z,17.50
2018-09-09T06:27:52.529Z,17.50
2018-09-09T06:30:19.896Z,17.50
2018-09-09T06:32:47.268Z,17.60
2018-09-09T06:35:14.609Z,17.60
2018-09-09T06:37:41.959Z,17.60
2018-09-09T06:40:09.315Z,17.60
2018-09-09T06:42:36.643Z,17.60
2018-09-09T06:45:04.131Z,17.60
2018-09-09T06:47:31.496Z,17.60
2018-09-09T06:49:58.828Z,17.60
2018-09-09T06:52:26.173Z,17.60
2018-09-09T06:54:53.522Z,17.70
2018-09-09T06:57:20.845Z,17.70
2018-09-09T06:59:48.203Z,17.70
2018-09-09T07:02:15.559Z,17.70
2018-09-09T07:04:42.878Z,17.70
2018-09-09T07:07:10.225Z,17.70
2018-09-09T07:09:37.575Z,17.80
2018-09-09T07:12:04.972Z,17.80
2018-09-09T07:14:32.299Z,17.80
2018-09-09T07:16:59.715Z,17.80
2018-09-09T07:19:27.024Z,17.80
2018-09-09T07:21:54.495Z,17.80
2018-09-09T07:24:21.908Z,17.90
2018-09-09T07:26:49.261Z,17.90
2018-09-09T07:29:16.860Z,17.90
2018-09-09T07:31:44.225Z,17.90
2018-09-09T07:34:11.571Z,17.90
2018-09-09T07:36:38.915Z,18.00
2018-09-09T07:39:06.463Z,18.00
2018-09-09T07:41:33.896Z,18.00
2018-09-09T07:44:01.249Z,18.00
2018-09-09T07:46:28.660Z,18.00
2018-09-09T07:48:56.076Z,18.00
2018-09-09T07:51:23.486Z,18.00
2018-09-09T07:53:50.885Z,18.00
2018-09-09T07:56:18.220Z,18.00
2018-09-09T07:58:45.624Z,18.10
2018-09-09T08:01:12.963Z,18.10
2018-09-09T08:03:40.287Z,18.20
2018-09-09T08:06:07.640Z,18.20
2018-09-09T08:08:34.994Z,18.20
2018-09-09T08:11:02.347Z,18.20
2018-09-09T08:13:29.699Z,18.30
2018-09-09T08:15:57.076Z,18.30
2018-09-09T08:18:24.484Z,18.30
2018-09-09T08:20:51.819Z,18.30
2018-09-09T08:23:19.163Z,18.30
2018-09-09T08:25:46.498Z,18.40
2018-09-09T08:28:13.861Z,18.40
2018-09-09T08:30:41.196Z,18.40
2018-09-09T08:33:08.547Z,18.50
2018-09-09T08:35:35.910Z,18.50
2018-09-09T08:38:03.259Z,18.50
2018-09-09T08:40:30.613Z,18.60
2018-09-09T08:42:58.017Z,18.60
2018-09-09T08:45:25.371Z,18.70
2018-09-09T08:47:52.836Z,18.70
2018-09-09T08:50:20.170Z,18.80
2018-09-09T08:52:47.551Z,18.80
2018-09-09T08:55:14.895Z,18.80
2018-09-09T08:57:42.246Z,18.90
2018-09-09T09:00:09.632Z,18.90
2018-09-09T09:02:36.980Z,18.90
2018-09-09T09:05:04.547Z,18.90
2018-09-09T09:07:31.945Z,19.00
2018-09-09T09:09:59.315Z,18.40
2018-09-09T09:12:26.736Z,19.10
2018-09-09T09:14:54.088Z,19.10
2018-09-09T09:17:21.471Z,19.20
2018-09-09T09:19:48.807Z,19.20
2018-09-09T09:22:16.166Z,19.20
2018-09-09T09:24:43.519Z,19.20
2018-09-09T09:27:10.855Z,19.20
2018-09-09T09:29:43.804Z,19.30
2018-09-09T09:32:11.138Z,19.30
2018-09-09T09:34:38.496Z,19.40
2018-09-09T09:37:05.852Z,19.40
2018-09-09T09:39:33.336Z,19.40
2018-09-09T09:42:00.683Z,19.50
2018-09-09T09:44:28.056Z,19.50
2018-09-09T09:46:55.820Z,19.60
2018-09-09T09:49:23.164Z,19.70
2018-09-09T09:51:50.554Z,19.70
2018-09-09T09:54:17.888Z,19.70
2018-09-09T09:56:45.228Z,19.80
2018-09-09T09:59:12.576Z,19.80
2018-09-09T10:01:39.932Z,19.80
2018-09-09T10:04:07.291Z,19.80
2018-09-09T10:06:34.647Z,19.80
2018-09-09T10:09:02.060Z,19.80
2018-09-09T10:11:29.342Z,19.90
2018-09-09T10:13:56.684Z,19.90
2018-09-09T10:16:24.127Z,19.90
2018-09-09T10:18:51.484Z,20.00
2018-09-09T10:21:18.833Z,20.10
2018-09-09T10:23:46.250Z,20.20
2018-09-09T10:26:13.561Z,20.20
2018-09-09T10:28:40.926Z,20.30
2018-09-09T10:31:08.284Z,20.40
2018-09-09T10:33:35.608Z,20.50
2018-09-09T10:36:02.964Z,20.70
2018-09-09T10:38:30.316Z,20.90
2018-09-09T10:40:57.737Z,21.10
2018-09-09T10:43:25.040Z,21.30
2018-09-09T10:45:52.391Z,21.40
2018-09-09T10:48:19.741Z,21.50
2018-09-09T10:50:47.113Z,21.40
2018-09-09T10:53:14.570Z,21.20
2018-09-09T10:55:41.887Z,21.20
2018-09-09T10:58:09.254Z,21.10
2018-09-09T11:00:36.616Z,21.00
2018-09-09T11:03:03.964Z,21.00
2018-09-09T11:05:31.351Z,21.00
2018-09-09T11:07:58.771Z,21.00
2018-09-09T11:10:26.112Z,21.00
2018-09-09T11:12:53.475Z,21.00
2018-09-09T11:15:20.823Z,21.00
2018-09-09T11:17:48.489Z,21.00
2018-09-09T11:20:15.877Z,21.10
2018-09-09T11:22:43.236Z,21.10
2018-09-09T11:25:10.595Z,21.10
2018-09-09T11:27:37.932Z,21.10
2018-09-09T11:30:05.288Z,21.20
2018-09-09T11:32:32.631Z,21.30
2018-09-09T11:35:00.004Z,21.40
2018-09-09T11:37:27.352Z,21.40
2018-09-09T11:39:54.712Z,21.40
2018-09-09T11:42:22.052Z,21.50
2018-09-09T11:44:49.407Z,21.50
2018-09-09T11:47:16.774Z,21.60
2018-09-09T11:49:44.128Z,21.60
2018-09-09T11:52:11.504Z,21.70
2018-09-09T11:54:38.831Z,21.80
2018-09-09T11:57:06.175Z,21.90
2018-09-09T11:59:33.521Z,22.00
2018-09-09T12:02:00.930Z,22.00
2018-09-09T12:04:28.255Z,22.10
2018-09-09T12:06:55.611Z,22.20
2018-09-09T12:09:22.972Z,22.30
2018-09-09T12:11:50.290Z,22.40
2018-09-09T12:14:17.620Z,22.50
2018-09-09T12:16:44.963Z,22.50
2018-09-09T12:19:12.305Z,22.50
2018-09-09T12:21:39.652Z,22.50
2018-09-09T12:24:07.021Z,22.50
2018-09-09T12:26:34.351Z,22.50
2018-09-09T12:29:01.795Z,22.50
2018-09-09T12:31:29.223Z,22.50
2018-09-09T12:33:56.608Z,22.40
2018-09-09T12:36:24.028Z,22.50
2018-09-09T12:38:51.387Z,22.50
2018-09-09T12:41:18.744Z,22.60
2018-09-09T12:43:51.851Z,22.50
2018-09-09T12:46:24.872Z,22.50
2018-09-09T12:48:59.892Z,22.40
2018-09-09T12:51:27.260Z,22.30
2018-09-09T12:53:54.633Z,22.30
2018-09-09T12:56:21.974Z,22.30
2018-09-09T12:58:49.447Z,22.30
2018-09-09T13:01:16.787Z,22.30
2018-09-09T13:03:44.286Z,22.30
2018-09-09T13:06:11.616Z,22.40
2018-09-09T13:08:38.988Z,22.50
2018-09-09T13:11:06.353Z,22.60
2018-09-09T13:13:33.680Z,22.70
2018-09-09T13:16:01.039Z,22.70
2018-09-09T13:18:28.416Z,22.70
2018-09-09T13:20:55.751Z,22.70
2018-09-09T13:23:23.089Z,22.70
2018-09-09T13:25:50.443Z,22.70
2018-09-09T13:28:17.815Z,22.80
2018-09-09T13:30:45.147Z,22.80
2018-09-09T13:33:12.492Z,22.80
2018-09-09T13:35:39.827Z,22.80
2018-09-09T13:38:07.172Z,22.80
2018-09-09T13:40:34.563Z,22.80
2018-09-09T13:43:02.043Z,22.70
2018-09-09T13:45:29.442Z,22.70
2018-09-09T13:47:56.801Z,22.80
2018-09-09T13:50:24.157Z,22.80
2018-09-09T13:52:51.491Z,22.80
2018-09-09T13:55:18.848Z,22.90
2018-09-09T13:57:46.187Z,22.90
2018-09-09T14:00:13.580Z,22.90
2018-09-09T14:02:41.024Z,22.90
2018-09-09T14:05:08.367Z,22.90
2018-09-09T14:07:35.739Z,22.80
2018-09-09T14:10:03.157Z,22.80
2018-09-09T14:12:30.506Z,22.80
2018-09-09T14:14:57.880Z,22.90
2018-09-09T14:17:25.301Z,22.90
2018-09-09T14:19:52.651Z,23.00
2018-09-09T14:22:20.065Z,23.00
2018-09-09T14:24:47.381Z,23.00
2018-09-09T14:27:14.720Z,23.00
2018-09-09T14:29:42.075Z,23.00
2018-09-09T14:32:09.456Z,23.00
2018-09-09T14:34:36.782Z,23.10
2018-09-09T14:37:04.152Z,23.00
2018-09-09T14:39:31.538Z,23.00
2018-09-09T14:41:58.875Z,23.00
2018-09-09T14:44:26.228Z,23.10
2018-09-09T14:46:53.652Z,23.10
2018-09-09T14:49:21.042Z,23.10
2018-09-09T14:51:51.944Z,23.10
2018-09-09T14:54:19.762Z,23.10
2018-09-09T14:56:47.117Z,23.10
2018-09-09T14:59:14.461Z,23.10
2018-09-09T15:01:41.819Z,23.20
2018-09-09T15:04:09.568Z,23.20
2018-09-09T15:06:36.907Z,23.20
2018-09-09T15:09:06.647Z,23.20
2018-09-09T15:11:33.992Z,23.30
2018-09-09T15:14:01.363Z,23.30
2018-09-09T15:16:28.760Z,23.30
2018-09-09T15:18:56.104Z,23.20
2018-09-09T15:21:23.461Z,23.20
2018-09-09T15:23:50.815Z,23.10
2018-09-09T15:26:18.160Z,23.10
2018-09-09T15:28:45.601Z,23.10
2018-09-09T15:31:12.943Z,23.10
2018-09-09T15:33:40.291Z,23.20
2018-09-09T15:36:07.644Z,23.10
2018-09-09T15:38:34.986Z,23.10
2018-09-09T15:41:03.203Z,23.20
2018-09-09T15:43:30.620Z,23.20
2018-09-09T15:45:57.984Z,23.20
2018-09-09T15:48:25.343Z,23.20
2018-09-09T15:50:52.699Z,23.20
2018-09-09T15:53:20.058Z,23.20
2018-09-09T15:55:47.412Z,23.20
2018-09-09T15:58:14.743Z,23.20
2018-09-09T16:00:42.104Z,23.20
2018-09-09T16:03:09.450Z,23.20
2018-09-09T16:05:36.817Z,23.10
2018-09-09T16:08:04.207Z,23.20
2018-09-09T16:10:31.553Z,23.20
2018-09-09T16:12:58.940Z,23.20
2018-09-09T16:15:26.320Z,23.20
2018-09-09T16:17:53.688Z,23.10
2018-09-09T16:20:23.404Z,23.20
2018-09-09T16:22:50.758Z,23.20
2018-09-09T16:25:18.174Z,23.20
2018-09-09T16:27:45.939Z,23.10
2018-09-09T16:30:13.305Z,23.20
2018-09-09T16:32:40.856Z,23.10
2018-09-09T16:35:08.233Z,23.20
2018-09-09T16:37:35.655Z,23.20
2018-09-09T16:40:03.101Z,23.20
2018-09-09T16:42:30.723Z,23.20
2018-09-09T16:44:58.109Z,23.20
2018-09-09T16:47:25.509Z,23.20
2018-09-09T16:49:52.889Z,23.30
2018-09-09T16:52:23.672Z,23.20
2018-09-09T16:54:51.212Z,23.20
2018-09-09T16:57:21.633Z,23.20
2018-09-09T16:59:49.019Z,23.20
2018-09-09T17:02:16.459Z,23.10
2018-09-09T17:04:43.836Z,23.10
2018-09-09T17:07:11.256Z,23.10
2018-09-09T17:09:38.653Z,23.10
2018-09-09T17:12:06.075Z,23.00
2018-09-09T17:14:33.456Z,23.00
2018-09-09T17:17:00.878Z,22.90
2018-09-09T17:19:28.269Z,22.90
2018-09-09T17:21:55.688Z,22.90
2018-09-09T17:24:23.119Z,22.80
2018-09-09T17:26:50.573Z,22.80
2018-09-09T17:29:17.987Z,22.80
2018-09-09T17:31:45.500Z,22.70
2018-09-09T17:34:12.940Z,22.70
2018-09-09T17:36:40.690Z,22.60
2018-09-09T17:39:09.313Z,22.50
2018-09-09T17:41:37.096Z,22.50
2018-09-09T17:44:04.644Z,22.40
2018-09-09T17:46:32.129Z,22.40
2018-09-09T17:48:59.602Z,22.40
2018-09-09T17:51:27.079Z,22.30
2018-09-09T17:53:54.540Z,22.30
2018-09-09T17:56:22.012Z,22.00
2018-09-09T17:58:49.497Z,22.30
2018-09-09T18:01:17.049Z,22.20
2018-09-09T18:03:44.556Z,22.30
2018-09-09T18:06:12.248Z,22.20
2018-09-09T18:08:39.662Z,22.10
2018-09-09T18:11:07.087Z,22.10
2018-09-09T18:13:34.622Z,22.10
2018-09-09T18:16:02.318Z,22.00
2018-09-09T18:18:29.824Z,22.00
2018-09-09T18:20:57.427Z,22.00
2018-09-09T18:23:24.865Z,21.90
2018-09-09T18:25:52.260Z,22.00
2018-09-09T18:28:19.652Z,21.90
2018-09-09T18:30:47.017Z,21.90
2018-09-09T18:33:14.414Z,21.90
2018-09-09T18:35:43.140Z,21.90
2018-09-09T18:38:10.589Z,21.90
2018-09-09T18:40:38.050Z,21.90
2018-09-09T18:43:05.464Z,21.80
2018-09-09T18:45:33.232Z,21.80
2018-09-09T18:48:00.640Z,21.80
2018-09-09T18:50:28.130Z,21.70
2018-09-09T18:52:55.800Z,21.70
2018-09-09T18:55:23.296Z,21.70
2018-09-09T18:57:50.696Z,21.70
2018-09-09T19:00:18.276Z,21.60
2018-09-09T19:02:45.689Z,21.60
2018-09-09T19:05:13.460Z,21.60
2018-09-09T19:07:40.894Z,21.60
2018-09-09T19:10:08.375Z,21.50
2018-09-09T19:12:35.996Z,21.50
2018-09-09T19:15:03.662Z,21.40
2018-09-09T19:17:31.418Z,21.40
2018-09-09T19:19:58.903Z,21.40
2018-09-09T19:22:26.309Z,21.30
2018-09-09T19:24:53.716Z,21.30
2018-09-09T19:27:21.135Z,21.20
2018-09-09T19:29:48.816Z,21.20
2018-09-09T19:32:16.256Z,21.10
2018-09-09T19:34:43.641Z,21.10
2018-09-09T19:37:11.151Z,21.10
2018-09-09T19:39:38.787Z,21.10
2018-09-09T19:42:06.455Z,21.10
2018-09-09T19:44:33.899Z,21.10
2018-09-09T19:47:01.666Z,21.00
2018-09-09T19:49:29.145Z,21.00
2018-09-09T19:51:56.632Z,21.00
2018-09-09T19:54:24.105Z,21.00
2018-09-09T19:56:51.518Z,21.90
2018-09-09T19:59:19.135Z,20.90
2018-09-09T20:01:46.667Z,20.90
2018-09-09T20:04:14.104Z,20.90
2018-09-09T20:06:41.534Z,21.00
2018-09-09T20:09:08.942Z,20.90
2018-09-09T20:11:36.776Z,20.90
2018-09-09T20:14:04.483Z,20.80
2018-09-09T20:16:31.887Z,20.80
2018-09-09T20:18:59.285Z,20.80
2018-09-09T20:21:26.683Z,20.80
2018-09-09T20:23:54.071Z,20.80
2018-09-09T20:26:21.732Z,20.80
2018-09-09T20:28:49.188Z,20.80
2018-09-09T20:31:16.763Z,20.80
2018-09-09T20:33:44.162Z,20.80
2018-09-09T20:36:11.848Z,20.80
2018-09-09T20:38:39.379Z,20.80
2018-09-09T20:41:06.832Z,20.70
2018-09-09T20:43:34.366Z,20.70
2018-09-09T20:46:02.145Z,20.70
2018-09-09T20:48:29.642Z,20.80
2018-09-09T20:50:57.095Z,20.60
2018-09-09T20:53:24.524Z,20.60
2018-09-09T20:55:51.966Z,20.60
2018-09-09T20:58:19.448Z,20.60
2018-09-09T21:00:47.632Z,20.60
2018-09-09T21:03:15.033Z,20.60
2018-09-09T21:05:42.427Z,20.60
2018-09-09T21:08:09.807Z,20.60
2018-09-09T21:10:37.292Z,20.60
2018-09-09T21:13:04.708Z,20.50
2018-09-09T21:15:32.176Z,20.50
2018-09-09T21:17:59.580Z,20.60
2018-09-09T21:20:26.968Z,20.50
2018-09-09T21:22:54.391Z,20.50
2018-09-09T21:25:21.797Z,20.50
2018-09-09T21:27:49.205Z,20.50
2018-09-09T21:30:16.613Z,20.50
2018-09-09T21:32:44.006Z,20.40
2018-09-09T21:35:11.812Z,20.40
2018-09-09T21:37:39.392Z,20.50
2018-09-09T21:40:06.883Z,20.40
2018-09-09T21:42:34.370Z,20.40
2018-09-09T21:45:01.769Z,20.40
2018-09-09T21:47:29.148Z,20.30
2018-09-09T21:49:56.560Z,20.30
2018-09-09T21:52:23.924Z,20.30
2018-09-09T21:54:51.319Z,20.30
2018-09-09T21:57:18.756Z,20.30
2018-09-09T21:59:46.176Z,20.30
2018-09-09T22:02:13.641Z,20.20
2018-09-09T22:04:41.043Z,20.20
2018-09-09T22:07:11.817Z,20.30
2018-09-09T22:09:40.260Z,20.20
2018-09-09T22:12:08.443Z,20.20
2018-09-09T22:14:35.906Z,20.20
2018-09-09T22:17:03.408Z,20.20
2018-09-09T22:19:30.825Z,20.10
2018-09-09T22:21:58.219Z,20.10
2018-09-09T22:24:25.680Z,20.10
2018-09-09T22:26:53.105Z,20.10
2018-09-09T22:29:20.490Z,20.10
2018-09-09T22:31:47.888Z,20.10
2018-09-09T22:34:15.531Z,20.10
2018-09-09T22:36:42.952Z,20.10
2018-09-09T22:39:11.073Z,20.10
2018-09-09T22:41:39.151Z,20.10
2018-09-09T22:44:08.122Z,20.10
2018-09-09T22:46:35.505Z,20.00
2018-09-09T22:49:02.879Z,20.00
2018-09-09T22:51:30.267Z,20.00
2018-09-09T22:53:57.648Z,20.00
2018-09-09T22:56:25.041Z,20.00
2018-09-09T22:58:52.441Z,19.90
2018-09-09T23:01:19.846Z,19.90
2018-09-09T23:03:47.241Z,19.90
2018-09-09T23:06:14.704Z,19.90
2018-09-09T23:08:42.303Z,19.90
2018-09-09T23:11:09.726Z,19.90
2018-09-09T23:13:37.776Z,19.90
2018-09-09T23:16:05.211Z,20.40
2018-09-09T23:18:32.607Z,19.80
2018-09-09T23:21:00.025Z,19.80
2018-09-09T23:23:27.416Z,19.80
2018-09-09T23:25:54.808Z,19.80
2018-09-09T23:28:22.184Z,19.80
2018-09-09T23:30:49.589Z,19.80
2018-09-09T23:33:16.988Z,19.80
2018-09-09T23:35:44.397Z,19.80
2018-09-09T23:38:11.885Z,19.80
2018-09-09T23:40:39.288Z,19.80
2018-09-09T23:43:06.679Z,19.70
2018-09-09T23:45:34.187Z,19.70
2018-09-09T23:48:01.564Z,19.70
2018-09-09T23:50:29.313Z,19.70
2018-09-09T23:52:56.805Z,19.70
2018-09-09T23:55:24.271Z,19.70
2018-09-09T23:57:51.716Z,19.70
